Turbeville, Virginia
Current Conditions -  °F | °C
As of 7:55 AM on Wednesday 22 Oct 2014 (Local Time) from KW78 Reporting Station
Overcast Overcast  
Wind Chill: 47°   Ceiling: 4800
Heat Index: 49°   Visibility: 10mi
Dew Point: 40°   Wind: 7mph
Humidity: 69%   Direction: 300°WNW
Pressure: 29.98"   Gusts: NA
Location:  36.7012°N, 79.0269°W
Report Text: KW78 221155Z AUTO 30006KT 10SM OVC048 10/04 A2998 RMK AO1 T00970043 10113 20090
Loading
Personal Weather Stations






























Interactive Weather Map
Tropical Storm Tracking
New forecast layout! Learn more

10-Day Weather Forecast

Advertisements
Track Severe Weather on mobile